Strona główna
METAR-TAF:

METAR-TAF

Lotnisko :

Dżudda, Arabia Saudyjska

Port lotniczy Dżudda

Szerokość geograficzna: 21-42N, Długość geograficzna: 039-11E, wysokość: 15 m

Aktualna obserwacja pogody

Raport powstał 53 minut temu, godzina 13:00 UTC
Wiatr 14 kt od zachodnio-północny zachód
Temperatura 26°C
Wilgotność 51%
Ciśnienie 1012 hPa
Widzialność 10 km lub więcej
Mało chmury na wysokości 3000 ft

METAR: OEJN 181300Z 30014KT 9999 FEW030 26/15 Q1012 NOSIG

czas: 16:53 (13:53 UTC)

Prognoza

Raport powstał 2 godziny i 53 minut temu, godzina 11:00 UTC
Prognoza ważna od 18 godzina 12 UTC do 19 godzina 18 UTC
Wiatr 14 kt od północno-północny zachód
Widzialność 10 km lub więcej
Mało chmury na wysokości 3000 ft
Stopniowe zmiany
od 18 godzina 18 UTC do 18 godzina 20 UTC
Wiatr 3 kt z kierunków zmiennych

TAF: OEJN 181100Z 1812/1918 33014KT 9999 FEW030 BECMG 1818/1820 VRB03KT

Obserwacja i prognoza pogody dla ponad 4000 lotnisk (raport METAR i TAF).

Dostępne stacje oznaczono żółtymi i czerwonymi punktami na mapie.

Najedź kursorem aby zobaczyć nazwę stacji.

Kliknij aby zobaczyć obserwacje i prognozy pogody.

Aby zmienić mapę: kliknij na zielony przycisk z czarnym krzyżykiem, aby powiększyć; na zielony przycisk z myślnikiem, aby pomniejszyć; na zielone strzałki, aby przejść do map sąsiednich.


METAR-TAF: